Time;durP1;ratioP1;P1;durP2;ratioP2;P2;SDS_P1;SDS_P2;PMS_P1;PMS_P2;Temp;Humidity;BMP_temperature;BMP_pressure;BME280_temperature;BME280_humidity;BME280_pressure;Samples;Min_cycle;Max_cycle;Signal;HPM_P1;HPM_P2
2022/03/13 00:02:09;;;;;;;7.20;5.33;;;;;;;5.15;35.73;99994.67;1768427;80;20954;-64
2022/03/13 00:04:37;;;;;;;9.10;5.35;;;;;;;5.15;35.80;99989.40;1763262;80;21003;-65
2022/03/13 00:07:19;;;;;;;7.65;5.45;;;;;;;5.17;35.77;99992.27;1746888;80;20939;-66
2022/03/13 00:09:42;;;;;;;9.75;5.20;;;;;;;5.18;35.79;99988.69;1735927;82;20912;-65
2022/03/13 00:12:12;;;;;;;7.25;5.17;;;;;;;5.22;35.76;99986.61;1733239;82;21262;-66
2022/03/13 00:14:43;;;;;;;8.55;4.80;;;;;;;5.26;35.70;99990.70;1713951;82;20955;-68
2022/03/13 00:17:11;;;;;;;9.25;4.83;;;;;;;5.31;35.69;99991.16;1711757;82;21048;-64
2022/03/13 00:19:38;;;;;;;7.60;5.30;;;;;;;5.31;35.67;99990.69;1733629;82;20956;-65
2022/03/13 00:22:05;;;;;;;6.25;4.33;;;;;;;5.28;35.72;99993.56;1732390;82;21022;-66
2022/03/13 00:24:34;;;;;;;9.25;5.17;;;;;;;5.26;35.81;99989.38;1732222;82;22162;-66
2022/03/13 00:27:02;;;;;;;6.30;4.67;;;;;;;5.24;35.86;99990.80;1734234;81;21452;-64
2022/03/13 00:29:31;;;;;;;5.65;4.78;;;;;;;5.22;35.93;99986.14;1735765;82;20938;-66
2022/03/13 00:31:58;;;;;;;10.10;5.03;;;;;;;5.20;36.07;99980.63;1733657;82;22279;-68
2022/03/13 00:34:26;;;;;;;6.95;5.03;;;;;;;5.16;36.20;99987.13;1735052;82;20998;-64
2022/03/13 00:36:54;;;;;;;7.28;5.12;;;;;;;5.13;36.27;99987.38;1735305;82;21252;-66
2022/03/13 00:39:21;;;;;;;6.87;4.78;;;;;;;5.12;36.36;99989.17;1734993;82;20949;-64
2022/03/13 00:41:49;;;;;;;6.60;5.05;;;;;;;5.14;36.36;99990.34;1734984;82;21032;-63
2022/03/13 00:44:16;;;;;;;6.72;4.40;;;;;;;5.13;36.48;99992.17;1707705;82;20942;-65
2022/03/13 00:46:43;;;;;;;8.23;4.60;;;;;;;5.10;36.60;99984.98;1720848;82;20947;-65
2022/03/13 00:49:10;;;;;;;5.80;4.90;;;;;;;5.07;36.68;99990.02;1710822;82;21258;-66
2022/03/13 00:51:39;;;;;;;6.65;5.28;;;;;;;5.04;36.83;99994.22;1734864;82;20950;-64
2022/03/13 00:54:06;;;;;;;6.42;4.65;;;;;;;5.00;36.96;99992.30;1734940;82;21056;-64
2022/03/13 00:56:33;;;;;;;6.33;4.70;;;;;;;4.99;36.98;99994.59;1733377;82;20950;-64
2022/03/13 00:59:02;;;;;;;9.85;4.72;;;;;;;4.96;37.08;99999.27;1742311;82;20955;-64
2022/03/13 01:01:29;;;;;;;8.10;4.70;;;;;;;4.93;37.25;99998.18;1734896;82;21247;-64
2022/03/13 01:03:56;;;;;;;8.35;5.15;;;;;;;4.90;37.36;99995.31;1735084;82;20974;-65
2022/03/13 01:06:23;;;;;;;7.00;4.97;;;;;;;4.85;37.51;99993.52;1729260;82;20903;-65
2022/03/13 01:08:51;;;;;;;7.67;5.25;;;;;;;4.79;37.68;99993.19;1728398;81;21007;-65
2022/03/13 01:11:20;;;;;;;7.58;4.78;;;;;;;4.76;37.77;99995.59;1703404;82;21054;-63
2022/03/13 01:13:49;;;;;;;10.90;6.12;;;;;;;4.72;37.96;99992.00;1734391;81;21926;-66
2022/03/13 01:16:25;;;;;;;6.53;5.22;;;;;;;4.68;38.08;99993.19;1734852;82;20955;-65
2022/03/13 01:18:59;;;;;;;7.80;4.45;;;;;;;4.65;38.22;99995.58;1739061;81;20988;-66
2022/03/13 01:21:26;;;;;;;6.20;4.78;;;;;;;4.62;38.35;99988.38;1712435;81;20950;-65
2022/03/13 01:24:10;;;;;;;6.90;5.12;;;;;;;4.61;38.46;99990.20;1734835;82;20967;-64
2022/03/13 01:26:38;;;;;;;5.92;5.15;;;;;;;4.58;38.61;99983.85;1736315;81;21861;-64
2022/03/13 01:29:08;;;;;;;7.22;4.65;;;;;;;4.56;38.71;99984.94;1734145;82;20905;-65
2022/03/13 01:31:40;;;;;;;7.05;5.47;;;;;;;4.54;38.78;99987.67;1736536;81;21497;-63
2022/03/13 01:34:11;;;;;;;6.50;5.15;;;;;;;4.50;38.88;99986.25;1735175;81;21505;-64
2022/03/13 01:36:38;;;;;;;8.33;5.50;;;;;;;4.45;39.09;99991.52;1715110;82;20979;-65
2022/03/13 01:39:06;;;;;;;7.05;5.25;;;;;;;4.42;39.22;99990.43;1723038;81;21264;-66
2022/03/13 01:41:34;;;;;;;6.62;5.28;;;;;;;4.40;39.29;99991.88;1736759;81;20921;-63
2022/03/13 01:44:02;;;;;;;7.62;5.30;;;;;;;4.38;39.50;99993.30;1734188;82;20999;-63
2022/03/13 01:46:29;;;;;;;8.75;5.45;;;;;;;4.38;39.62;99998.22;1729402;81;21004;-64
2022/03/13 01:49:03;;;;;;;9.18;5.78;;;;;;;4.34;39.82;99994.98;1731710;81;21007;-65
2022/03/13 01:51:32;;;;;;;11.65;6.50;;;;;;;4.30;40.07;99999.63;1730795;82;21164;-65
2022/03/13 01:54:09;;;;;;;7.28;5.60;;;;;;;4.25;40.36;99999.62;1669887;84;21045;-63
2022/03/13 01:56:37;;;;;;;7.55;6.00;;;;;;;4.17;40.70;99992.81;1736772;81;21039;-63
2022/03/13 01:59:06;;;;;;;7.83;6.10;;;;;;;4.09;41.00;99995.19;1735544;82;20924;-64
2022/03/13 02:01:33;;;;;;;8.15;6.70;;;;;;;4.02;41.30;99996.59;1722634;82;21134;-67
2022/03/13 02:04:00;;;;;;;8.25;6.10;;;;;;;3.98;41.55;99996.48;1735181;81;21248;-66
2022/03/13 02:06:29;;;;;;;8.88;6.35;;;;;;;3.92;41.75;99997.77;1736025;81;20990;-64
2022/03/13 02:08:57;;;;;;;8.03;5.90;;;;;;;3.91;41.88;99999.22;1732328;81;21060;-65
2022/03/13 02:11:40;;;;;;;6.62;5.35;;;;;;;3.90;42.08;100001.48;1715560;82;21026;-65
2022/03/13 02:14:10;;;;;;;11.38;6.72;;;;;;;3.89;42.28;100001.95;1715710;82;21019;-66
2022/03/13 02:16:37;;;;;;;9.05;5.78;;;;;;;3.90;42.34;99998.84;1715501;82;21174;-65
2022/03/13 02:19:06;;;;;;;7.20;5.50;;;;;;;3.91;42.40;99999.22;1734522;82;21448;-66
2022/03/13 02:21:53;;;;;;;9.28;5.65;;;;;;;3.91;42.49;100001.85;1735861;82;20859;-63
2022/03/13 02:24:24;;;;;;;7.65;6.12;;;;;;;3.90;42.61;100000.16;1707660;82;21623;-65
2022/03/13 02:27:04;;;;;;;7.17;5.72;;;;;;;3.90;42.67;100001.48;1729847;82;21037;-64
2022/03/13 02:29:32;;;;;;;8.08;5.58;;;;;;;3.87;42.87;100007.81;1726496;82;21858;-63
2022/03/13 02:32:01;;;;;;;10.25;6.00;;;;;;;3.86;42.92;100007.94;1718883;82;21014;-65
2022/03/13 02:34:29;;;;;;;11.70;5.05;;;;;;;3.84;43.03;100011.98;1731742;82;20934;-65
2022/03/13 02:37:05;;;;;;;7.37;5.50;;;;;;;3.85;43.05;100016.31;1734865;82;20905;-65
2022/03/13 02:39:36;;;;;;;7.70;5.83;;;;;;;3.84;43.09;100015.09;1735901;82;20878;-64
2022/03/13 02:42:05;;;;;;;6.67;5.75;;;;;;;3.85;43.16;100018.94;1736025;82;21465;-66
2022/03/13 02:44:32;;;;;;;7.65;5.50;;;;;;;3.88;43.21;100022.66;1735615;82;20858;-65
2022/03/13 02:47:02;;;;;;;7.28;5.17;;;;;;;3.87;43.32;100025.39;1733316;82;20979;-64
2022/03/13 02:49:30;;;;;;;8.10;5.72;;;;;;;3.87;43.43;100027.55;1731255;82;21019;-65
2022/03/13 02:52:01;;;;;;;7.62;4.78;;;;;;;3.88;43.53;100031.03;1733031;82;20938;-65
2022/03/13 02:54:28;;;;;;;6.67;5.45;;;;;;;3.89;43.67;100028.73;1735874;81;21235;-65
2022/03/13 02:56:55;;;;;;;8.23;5.42;;;;;;;3.92;43.79;100031.15;1734775;82;20992;-64
2022/03/13 02:59:22;;;;;;;9.28;5.25;;;;;;;3.94;43.90;100034.50;1733444;82;21011;-64
2022/03/13 03:01:51;;;;;;;6.30;4.90;;;;;;;3.96;44.07;100026.87;1734175;82;20895;-64
2022/03/13 03:04:18;;;;;;;5.58;4.72;;;;;;;3.95;44.15;100022.55;1735819;81;20942;-64
2022/03/13 03:07:01;;;;;;;8.28;5.20;;;;;;;3.98;44.24;100026.75;1734654;82;21242;-66
2022/03/13 03:09:31;;;;;;;8.60;5.33;;;;;;;4.02;44.23;100032.12;1746456;80;20963;-64
2022/03/13 03:12:01;;;;;;;5.55;4.55;;;;;;;4.05;44.32;100029.27;1767788;80;21034;-64
2022/03/13 03:14:29;;;;;;;7.72;5.12;;;;;;;4.05;44.48;100037.17;1753383;80;20943;-64
2022/03/13 03:16:57;;;;;;;6.47;4.58;;;;;;;4.05;44.71;100033.22;1768089;80;20907;-64
2022/03/13 03:19:24;;;;;;;9.75;5.10;;;;;;;4.04;44.90;100023.66;1744481;82;21258;-65
2022/03/13 03:21:52;;;;;;;5.62;4.47;;;;;;;4.08;44.99;100035.62;1741314;80;20861;-65
2022/03/13 03:24:22;;;;;;;6.87;5.25;;;;;;;4.10;45.06;100039.83;1757519;80;21489;-64
2022/03/13 03:26:49;;;;;;;8.50;4.95;;;;;;;4.08;45.38;100031.68;1734486;81;20936;-65
2022/03/13 03:29:16;;;;;;;6.50;5.05;;;;;;;3.99;45.79;100040.28;1754697;81;20991;-63
2022/03/13 03:31:46;;;;;;;7.92;5.20;;;;;;;3.98;45.84;100042.55;1741177;80;21319;-64
2022/03/13 03:34:17;;;;;;;7.28;5.35;;;;;;;3.96;46.03;100040.04;1741368;81;21437;-63
2022/03/13 03:36:50;;;;;;;7.92;5.60;;;;;;;3.92;46.28;100045.16;1770040;80;20927;-65
2022/03/13 03:39:19;;;;;;;7.90;5.30;;;;;;;3.91;46.38;100044.78;1745459;80;21006;-64
2022/03/13 03:41:48;;;;;;;6.58;4.83;;;;;;;3.99;46.41;100049.50;1745229;80;20939;-64
2022/03/13 03:44:16;;;;;;;7.60;5.55;;;;;;;3.92;46.77;100047.79;1760736;80;21312;-64
2022/03/13 03:46:44;;;;;;;5.50;4.60;;;;;;;3.91;46.85;100047.91;1748808;80;21085;-66
2022/03/13 03:49:11;;;;;;;6.97;5.20;;;;;;;3.91;47.05;100053.99;1743883;82;21009;-66
2022/03/13 03:51:38;;;;;;;7.28;5.25;;;;;;;3.91;47.12;100059.77;1743302;80;20982;-63
2022/03/13 03:54:05;;;;;;;6.10;4.60;;;;;;;3.93;47.20;100064.42;1770298;80;20893;-65
2022/03/13 03:56:32;;;;;;;5.78;5.12;;;;;;;3.94;47.36;100065.62;1760795;80;21213;-65
2022/03/13 03:59:00;;;;;;;7.37;5.00;;;;;;;3.95;47.43;100069.09;1757635;80;20959;-68
2022/03/13 04:01:29;;;;;;;6.90;4.78;;;;;;;3.94;47.54;100073.52;1748125;80;20943;-66
2022/03/13 04:03:58;;;;;;;5.85;4.45;;;;;;;3.94;47.60;100077.46;1743485;80;21017;-64
2022/03/13 04:06:25;;;;;;;6.35;5.17;;;;;;;3.95;47.77;100079.62;1744513;82;21001;-65
2022/03/13 04:08:52;;;;;;;7.40;5.90;;;;;;;3.96;47.79;100086.58;1746603;80;21274;-64
2022/03/13 04:11:20;;;;;;;5.80;4.53;;;;;;;3.97;47.85;100082.50;1760941;80;20879;-64
2022/03/13 04:13:50;;;;;;;6.05;4.83;;;;;;;4.00;47.92;100081.44;1750824;80;20929;-66
2022/03/13 04:16:17;;;;;;;6.05;4.97;;;;;;;4.05;47.92;100083.25;1751866;80;20946;-65
2022/03/13 04:18:44;;;;;;;6.37;4.75;;;;;;;4.06;48.00;100081.84;1749763;80;20880;-63
2022/03/13 04:21:12;;;;;;;9.95;5.47;;;;;;;4.07;48.11;100089.23;1744659;80;21243;-63
2022/03/13 04:23:39;;;;;;;5.80;5.15;;;;;;;4.08;48.12;100082.55;1746529;80;20976;-65
2022/03/13 04:26:08;;;;;;;5.20;4.40;;;;;;;4.12;48.15;100089.76;1739789;81;21004;-64
2022/03/13 04:28:35;;;;;;;6.78;5.47;;;;;;;4.15;48.17;100096.08;1755943;81;20868;-63
2022/03/13 04:31:05;;;;;;;6.65;5.37;;;;;;;4.15;48.20;100097.41;1743762;81;20988;-64
2022/03/13 04:33:33;;;;;;;6.72;4.65;;;;;;;4.19;48.15;100099.72;1755156;81;22280;-66
2022/03/13 04:36:02;;;;;;;7.22;5.30;;;;;;;4.21;48.22;100107.48;1765697;80;20975;-66
2022/03/13 04:38:30;;;;;;;7.17;5.35;;;;;;;4.19;48.33;100106.30;1746278;80;21473;-65
2022/03/13 04:40:57;;;;;;;7.42;5.67;;;;;;;4.15;48.43;100115.36;1758091;80;20998;-66
2022/03/13 04:43:24;;;;;;;6.70;4.85;;;;;;;4.13;48.55;100116.44;1743352;80;20971;-64
2022/03/13 04:45:54;;;;;;;7.05;5.40;;;;;;;4.15;48.59;100117.16;1703656;84;21101;-66
2022/03/13 04:48:21;;;;;;;5.90;4.97;;;;;;;4.15;48.63;100119.31;1722208;82;20880;-66
2022/03/13 04:50:48;;;;;;;8.28;5.67;;;;;;;4.15;48.66;100124.58;1722608;82;20992;-63
2022/03/13 04:53:15;;;;;;;6.30;4.95;;;;;;;4.16;48.71;100121.48;1725044;82;20885;-64
2022/03/13 04:55:43;;;;;;;7.90;5.42;;;;;;;4.16;48.83;100117.53;1684818;83;21004;-63
2022/03/13 04:58:12;;;;;;;6.10;4.58;;;;;;;4.16;48.91;100121.48;1689818;83;21312;-67
2022/03/13 05:00:39;;;;;;;7.05;5.45;;;;;;;4.18;48.94;100124.83;1715333;82;20918;-65
2022/03/13 05:03:07;;;;;;;7.03;4.72;;;;;;;4.16;48.94;100131.54;1694080;83;20994;-65
2022/03/13 05:05:34;;;;;;;9.05;5.72;;;;;;;4.18;48.93;100135.36;1707921;83;20967;-62
2022/03/13 05:08:04;;;;;;;6.78;4.65;;;;;;;4.18;48.93;100138.00;1702115;83;21019;-66
2022/03/13 05:10:38;;;;;;;7.50;5.60;;;;;;;4.16;49.00;100136.80;1734830;81;21932;-64
2022/03/13 05:13:07;;;;;;;6.42;5.42;;;;;;;4.18;49.01;100145.90;1755117;81;20856;-64
2022/03/13 05:15:36;;;;;;;7.12;5.67;;;;;;;4.14;49.10;100136.56;1755966;81;21447;-66
2022/03/13 05:18:03;;;;;;;6.78;5.00;;;;;;;4.12;49.19;100143.73;1755011;81;21530;-64
2022/03/13 05:20:35;;;;;;;6.92;5.65;;;;;;;4.11;49.26;100141.58;1748200;81;21419;-64
2022/03/13 05:23:05;;;;;;;7.28;5.22;;;;;;;4.13;49.28;100143.61;1761532;80;21283;-65
2022/03/13 05:25:32;;;;;;;7.83;5.17;;;;;;;4.15;49.31;100145.65;1763582;80;21430;-70
2022/03/13 05:27:59;;;;;;;7.05;5.50;;;;;;;4.14;49.37;100149.25;1750866;80;20979;-63
2022/03/13 05:30:27;;;;;;;8.35;5.83;;;;;;;4.15;49.43;100155.34;1757188;81;20987;-65
2022/03/13 05:32:55;;;;;;;7.25;5.67;;;;;;;4.17;49.46;100158.72;1760128;80;20927;-65
2022/03/13 05:35:23;;;;;;;7.80;6.22;;;;;;;4.19;49.55;100164.70;1762690;81;21260;-64
2022/03/13 05:37:50;;;;;;;11.33;6.50;;;;;;;4.14;49.56;100165.05;1749433;81;20974;-65
2022/03/13 05:40:18;;;;;;;6.25;5.20;;;;;;;4.16;49.58;100166.25;1756300;80;20939;-66
2022/03/13 05:42:48;;;;;;;9.35;6.12;;;;;;;4.15;49.61;100170.67;1761687;81;20864;-64
2022/03/13 05:45:16;;;;;;;7.80;5.37;;;;;;;4.13;49.73;100177.00;1740308;81;20923;-64
2022/03/13 05:47:52;;;;;;;7.03;5.42;;;;;;;4.12;49.83;100181.92;1751082;81;21212;-65
2022/03/13 05:50:20;;;;;;;9.83;5.65;;;;;;;4.07;49.95;100187.97;1730881;81;21466;-65
2022/03/13 05:52:47;;;;;;;6.75;5.45;;;;;;;4.05;49.98;100190.73;1744694;80;21481;-65
2022/03/13 05:55:14;;;;;;;8.23;5.72;;;;;;;4.08;50.07;100196.25;1758798;80;21646;-63
2022/03/13 05:57:42;;;;;;;9.68;6.05;;;;;;;4.07;50.16;100195.88;1757623;80;21433;-64
2022/03/13 06:00:12;;;;;;;8.43;6.17;;;;;;;4.08;50.18;100198.41;1759266;80;21271;-65
2022/03/13 06:02:44;;;;;;;7.47;6.05;;;;;;;4.09;50.20;100194.81;1755192;81;20907;-63
2022/03/13 06:05:11;;;;;;;8.13;6.22;;;;;;;4.14;50.20;100199.77;1763255;81;20904;-64
2022/03/13 06:07:39;;;;;;;8.20;6.47;;;;;;;4.15;50.19;100197.47;1763945;81;20939;-65
2022/03/13 06:10:08;;;;;;;7.47;5.67;;;;;;;4.18;50.22;100202.05;1749873;81;21514;-66
2022/03/13 06:12:36;;;;;;;8.70;5.53;;;;;;;4.17;50.20;100212.20;1750831;81;21313;-66
2022/03/13 06:15:05;;;;;;;7.47;6.30;;;;;;;4.20;50.24;100217.25;1739575;82;20979;-66
2022/03/13 06:17:32;;;;;;;8.13;6.12;;;;;;;4.21;50.23;100219.42;1739189;82;20977;-65
2022/03/13 06:20:03;;;;;;;12.75;6.17;;;;;;;4.21;50.23;100223.37;1764822;81;20951;-63
2022/03/13 06:22:30;;;;;;;12.25;8.70;;;;;;;4.21;50.29;100226.00;1751541;81;21402;-66
2022/03/13 06:24:57;;;;;;;8.60;6.70;;;;;;;4.19;50.36;100230.55;1698298;84;21844;-64
2022/03/13 06:27:24;;;;;;;7.87;6.65;;;;;;;4.22;50.34;100232.46;1758515;81;21642;-64
2022/03/13 06:29:52;;;;;;;9.10;6.55;;;;;;;4.24;50.30;100233.22;1740201;82;21604;-64
2022/03/13 06:32:19;;;;;;;8.63;7.25;;;;;;;4.29;50.28;100235.50;1754375;81;21013;-63
2022/03/13 06:34:48;;;;;;;12.25;7.37;;;;;;;4.29;50.27;100229.77;1745129;81;20996;-66
2022/03/13 06:37:15;;;;;;;11.88;7.05;;;;;;;4.29;50.26;100236.35;1735286;81;22118;-65
2022/03/13 06:39:42;;;;;;;10.45;7.47;;;;;;;4.29;50.29;100229.77;1741468;81;21049;-66
2022/03/13 06:42:09;;;;;;;9.48;7.42;;;;;;;4.29;50.27;100236.82;1656853;85;21511;-66
2022/03/13 06:44:36;;;;;;;11.08;7.37;;;;;;;4.27;50.32;100238.73;1705516;83;21564;-65
2022/03/13 06:47:04;;;;;;;12.10;7.30;;;;;;;4.27;50.38;100244.00;1706645;82;20935;-65
2022/03/13 06:49:31;;;;;;;10.38;6.65;;;;;;;4.29;50.44;100241.62;1758641;81;21241;-65
2022/03/13 06:51:58;;;;;;;7.92;6.22;;;;;;;4.27;50.41;100248.80;1748241;81;20896;-65
2022/03/13 06:54:26;;;;;;;9.18;6.70;;;;;;;4.28;50.38;100249.14;1739132;82;20997;-66
2022/03/13 06:56:53;;;;;;;9.65;6.33;;;;;;;4.28;50.40;100249.62;1735996;81;21542;-66
2022/03/13 06:59:20;;;;;;;9.13;6.20;;;;;;;4.26;50.42;100258.95;1738425;81;20979;-65
2022/03/13 07:01:48;;;;;;;8.88;6.40;;;;;;;4.28;50.41;100262.31;1744458;81;21280;-64
2022/03/13 07:04:15;;;;;;;8.80;6.28;;;;;;;4.30;50.45;100260.91;1731009;80;21572;-67
2022/03/13 07:06:42;;;;;;;10.48;6.50;;;;;;;4.31;50.43;100262.56;1734878;81;21434;-65
2022/03/13 07:09:09;;;;;;;8.15;6.30;;;;;;;4.31;50.45;100270.47;1741707;81;20951;-64
2022/03/13 07:11:37;;;;;;;11.33;6.53;;;;;;;4.30;50.52;100274.89;1740523;81;20995;-66
2022/03/13 07:14:07;;;;;;;11.50;6.78;;;;;;;4.33;50.47;100284.36;1699925;83;21433;-66
2022/03/13 07:16:34;;;;;;;10.93;7.08;;;;;;;4.35;50.43;100281.17;1702189;83;20868;-65
2022/03/13 07:19:01;;;;;;;8.98;6.08;;;;;;;4.37;50.42;100284.52;1685851;83;20993;-65
2022/03/13 07:21:28;;;;;;;8.98;6.25;;;;;;;4.38;50.47;100291.95;1684634;84;21012;-65
2022/03/13 07:23:55;;;;;;;10.85;6.78;;;;;;;4.40;50.43;100288.73;1706942;83;20991;-67
2022/03/13 07:26:23;;;;;;;11.12;7.20;;;;;;;4.42;50.46;100288.98;1710111;83;21150;-65
2022/03/13 07:28:50;;;;;;;9.18;6.30;;;;;;;4.49;50.43;100296.79;1719164;83;20889;-65
2022/03/13 07:31:18;;;;;;;9.03;6.35;;;;;;;4.55;50.31;100297.67;1743977;81;21049;-64
2022/03/13 07:33:45;;;;;;;7.78;6.40;;;;;;;4.59;50.17;100295.16;1731170;81;20919;-66
2022/03/13 07:36:13;;;;;;;8.08;6.12;;;;;;;4.60;50.11;100290.73;1729815;81;20978;-66
2022/03/13 07:38:40;;;;;;;9.83;6.25;;;;;;;4.61;50.05;100298.55;1735598;81;21284;-65
2022/03/13 07:41:07;;;;;;;14.23;6.17;;;;;;;4.63;50.12;100297.95;1736303;81;21024;-64
2022/03/13 07:43:34;;;;;;;11.68;6.22;;;;;;;4.64;50.04;100298.30;1746637;81;20936;-65
2022/03/13 07:46:01;;;;;;;7.30;5.60;;;;;;;4.68;49.94;100300.23;1736124;81;20940;-64
2022/03/13 07:48:29;;;;;;;9.18;6.37;;;;;;;4.71;49.90;100302.19;1730810;82;21005;-67
2022/03/13 07:50:58;;;;;;;9.00;6.45;;;;;;;4.76;49.82;100309.74;1731451;81;21282;-65
2022/03/13 07:53:28;;;;;;;8.63;6.15;;;;;;;4.75;49.75;100311.53;1741948;81;21003;-63
2022/03/13 07:55:55;;;;;;;8.75;5.72;;;;;;;4.77;49.67;100313.57;1737013;81;21143;-63
2022/03/13 07:58:22;;;;;;;8.43;5.95;;;;;;;4.78;49.68;100314.41;1732767;81;21036;-66
2022/03/13 08:00:50;;;;;;;13.30;5.75;;;;;;;4.81;49.64;100318.15;1745509;81;21110;-65
2022/03/13 08:03:24;;;;;;;10.00;6.22;;;;;;;4.88;49.58;100323.32;1692477;84;21938;-66
2022/03/13 08:05:46;;;;;;;9.35;6.47;;;;;;;4.90;49.52;100322.25;1695729;83;21422;-64
2022/03/13 08:08:13;;;;;;;9.90;6.33;;;;;;;4.89;49.49;100324.55;1731224;81;21432;-65
2022/03/13 08:10:40;;;;;;;11.93;6.97;;;;;;;4.90;49.53;100331.48;1728863;81;21520;-66
2022/03/13 08:13:09;;;;;;;11.00;6.95;;;;;;;4.89;49.53;100327.66;1741481;81;20953;-67
2022/03/13 08:15:38;;;;;;;8.60;6.30;;;;;;;4.92;49.55;100328.28;1733616;81;21102;-64
2022/03/13 08:18:05;;;;;;;7.08;5.55;;;;;;;4.95;49.38;100325.89;1752375;81;20876;-64
2022/03/13 08:20:32;;;;;;;8.35;5.90;;;;;;;4.93;49.30;100329.09;1744197;81;20948;-65
2022/03/13 08:23:00;;;;;;;7.58;6.10;;;;;;;4.94;49.30;100325.52;1742220;81;20959;-65
2022/03/13 08:25:27;;;;;;;8.15;5.90;;;;;;;4.99;49.23;100335.23;1759504;80;21572;-65
2022/03/13 08:27:55;;;;;;;8.55;5.78;;;;;;;5.00;49.21;100336.94;1756631;80;22158;-66
2022/03/13 08:30:22;;;;;;;9.45;6.75;;;;;;;5.04;49.23;100333.57;1757166;80;21650;-67
2022/03/13 08:32:50;;;;;;;8.83;5.95;;;;;;;5.09;49.07;100332.74;1745023;80;20927;-64
2022/03/13 08:35:17;;;;;;;7.28;6.33;;;;;;;5.09;48.93;100332.27;1749411;80;20982;-68
2022/03/13 08:37:45;;;;;;;6.85;5.95;;;;;;;5.11;48.96;100329.03;1753567;80;20996;-65
2022/03/13 08:40:13;;;;;;;9.30;6.53;;;;;;;5.14;48.89;100331.92;1753371;80;21264;-66
2022/03/13 08:42:40;;;;;;;6.62;5.40;;;;;;;5.20;48.83;100338.06;1754895;80;20923;-65
2022/03/13 08:45:11;;;;;;;8.10;5.42;;;;;;;5.29;48.73;100337.38;1752609;80;21037;-63
2022/03/13 08:47:40;;;;;;;11.20;5.87;;;;;;;5.40;48.51;100329.47;1744747;80;20958;-65
2022/03/13 08:50:09;;;;;;;8.65;6.08;;;;;;;5.53;48.35;100328.42;1744721;80;21008;-66
2022/03/13 08:52:38;;;;;;;7.22;5.87;;;;;;;5.67;48.17;100338.39;1743016;81;21044;-64
2022/03/13 08:55:13;;;;;;;10.23;6.62;;;;;;;5.83;47.94;100343.70;1751294;80;21541;-66
2022/03/13 08:57:39;;;;;;;9.98;6.62;;;;;;;5.97;47.63;100347.95;1747864;80;20903;-65
2022/03/13 09:00:10;;;;;;;7.85;6.28;;;;;;;6.08;47.40;100343.95;1748124;80;21117;-63
2022/03/13 09:02:38;;;;;;;8.35;5.70;;;;;;;6.18;47.16;100353.68;1763192;80;20974;-66
2022/03/13 09:05:06;;;;;;;9.25;6.15;;;;;;;6.34;46.82;100350.66;1693050;84;21266;-64
2022/03/13 09:07:34;;;;;;;7.15;6.05;;;;;;;6.44;46.65;100352.92;1700123;84;20959;-64
2022/03/13 09:10:07;;;;;;;9.28;6.05;;;;;;;6.53;46.26;100352.20;1690717;83;21007;-65
2022/03/13 09:12:35;;;;;;;6.28;5.50;;;;;;;6.64;45.98;100348.69;1689890;83;21442;-66
2022/03/13 09:15:04;;;;;;;10.68;5.95;;;;;;;6.78;45.78;100345.74;1696543;83;20916;-64
2022/03/13 09:17:31;;;;;;;6.92;5.37;;;;;;;6.88;45.42;100350.66;1703198;83;21281;-66
2022/03/13 09:19:58;;;;;;;8.03;5.65;;;;;;;6.93;45.08;100348.95;1696767;83;20998;-63
2022/03/13 09:22:28;;;;;;;7.35;5.08;;;;;;;7.07;44.78;100348.64;1699489;83;21069;-66
2022/03/13 09:24:59;;;;;;;9.20;6.40;;;;;;;7.17;44.43;100351.72;1749432;80;21054;-68
2022/03/13 09:27:26;;;;;;;6.45;5.83;;;;;;;7.27;44.35;100352.63;1719475;82;21506;-68
2022/03/13 09:29:54;;;;;;;6.55;5.75;;;;;;;7.41;44.07;100360.27;1748294;80;22132;-65
2022/03/13 09:32:23;;;;;;;7.72;6.30;;;;;;;7.54;43.63;100357.89;1751858;80;21687;-66
2022/03/13 09:34:50;;;;;;;6.78;5.30;;;;;;;7.65;43.42;100359.16;1748734;80;20968;-66
2022/03/13 09:37:18;;;;;;;8.73;5.28;;;;;;;7.78;43.12;100354.48;1718480;82;20965;-63
2022/03/13 09:39:45;;;;;;;7.60;5.30;;;;;;;7.89;42.48;100355.73;1753887;80;20904;-64
2022/03/13 09:42:12;;;;;;;7.55;4.92;;;;;;;7.96;42.09;100358.20;1744799;80;21252;-65
2022/03/13 09:44:39;;;;;;;6.75;5.37;;;;;;;8.05;41.65;100356.09;1766012;80;20899;-65
2022/03/13 09:47:10;;;;;;;6.00;4.72;;;;;;;8.14;41.37;100358.41;1743648;81;21094;-65
2022/03/13 09:49:37;;;;;;;11.73;9.18;;;;;;;8.28;41.09;100352.79;1714755;82;20985;-64
2022/03/13 09:52:05;;;;;;;6.42;5.83;;;;;;;8.40;40.86;100350.38;1756157;80;20974;-65
2022/03/13 09:54:34;;;;;;;7.00;5.72;;;;;;;8.54;40.39;100352.17;1745773;80;21272;-65
2022/03/13 09:57:04;;;;;;;6.90;5.08;;;;;;;8.68;40.06;100354.93;1750317;80;20987;-65
2022/03/13 09:59:32;;;;;;;6.20;5.00;;;;;;;8.85;39.59;100357.38;1772026;80;21007;-64
2022/03/13 10:01:59;;;;;;;5.65;5.05;;;;;;;8.99;39.21;100355.66;1752573;80;21071;-63
2022/03/13 10:04:26;;;;;;;6.35;4.92;;;;;;;9.13;39.00;100351.23;1745724;80;21051;-66
2022/03/13 10:07:11;;;;;;;5.78;4.75;;;;;;;9.24;38.72;100361.23;1742450;80;21262;-64
2022/03/13 10:09:41;;;;;;;5.40;4.50;;;;;;;9.35;38.44;100362.91;1746396;80;21004;-67
2022/03/13 10:12:12;;;;;;;7.33;5.60;;;;;;;9.46;37.98;100360.11;1766187;80;20998;-65
2022/03/13 10:15:05;;;;;;;5.95;4.40;;;;;;;9.49;37.84;100361.12;1749441;80;20931;-65
2022/03/13 10:17:35;;;;;;;6.20;4.78;;;;;;;9.49;37.72;100357.66;1746554;80;20935;-67
2022/03/13 10:20:26;;;;;;;4.60;3.55;;;;;;;9.48;37.45;100357.30;1750053;80;21268;-68
2022/03/13 10:23:05;;;;;;;4.80;3.62;;;;;;;9.42;37.41;100357.38;1729400;81;20967;-67
2022/03/13 10:25:35;;;;;;;5.25;3.87;;;;;;;9.36;37.03;100362.42;1728377;80;20953;-66
2022/03/13 10:28:26;;;;;;;5.60;3.83;;;;;;;9.33;37.25;100355.58;1747198;80;20963;-67
2022/03/13 10:31:05;;;;;;;5.35;4.08;;;;;;;9.39;37.17;100358.98;1769256;80;20962;-66
2022/03/13 10:33:47;;;;;;;5.35;3.60;;;;;;;9.41;37.13;100358.86;1766068;80;22077;-65
2022/03/13 10:36:17;;;;;;;5.67;2.95;;;;;;;9.40;36.95;100365.98;1762216;80;20872;-65
2022/03/13 10:38:46;;;;;;;5.42;4.00;;;;;;;9.41;36.96;100366.31;1736077;80;20906;-65
2022/03/13 10:41:13;;;;;;;6.40;3.33;;;;;;;9.31;36.92;100367.66;1712597;81;20963;-65
2022/03/13 10:43:55;;;;;;;3.55;3.22;;;;;;;9.27;37.19;100371.58;1755138;80;20896;-65
2022/03/13 10:46:27;;;;;;;7.65;3.42;;;;;;;9.26;37.11;100373.03;1765257;80;21300;-65
2022/03/13 10:48:55;;;;;;;3.98;3.12;;;;;;;9.26;36.92;100376.53;1759976;80;20947;-65
2022/03/13 10:51:40;;;;;;;6.40;4.45;;;;;;;9.16;36.96;100373.05;1771201;80;21046;-66
2022/03/13 10:54:06;;;;;;;4.45;3.58;;;;;;;9.13;36.97;100371.15;1755763;80;21041;-65
2022/03/13 10:56:35;;;;;;;6.85;3.67;;;;;;;9.09;37.05;100372.42;1744750;80;21040;-66
2022/03/13 10:59:17;;;;;;;4.12;3.17;;;;;;;9.14;36.89;100374.16;1745036;80;21281;-65
2022/03/13 11:01:45;;;;;;;5.70;3.25;;;;;;;9.11;36.63;100372.63;1738683;82;20892;-64
2022/03/13 11:04:16;;;;;;;4.95;3.35;;;;;;;9.03;36.67;100376.95;1718765;80;20939;-64
2022/03/13 11:06:41;;;;;;;5.53;3.12;;;;;;;8.93;36.67;100380.08;1749151;80;21010;-67
2022/03/13 11:09:09;;;;;;;2.98;2.50;;;;;;;8.88;36.83;100378.33;1761194;80;21011;-64
2022/03/13 11:11:37;;;;;;;3.52;3.22;;;;;;;8.87;36.88;100377.48;1753510;80;22216;-64
2022/03/13 11:14:07;;;;;;;4.33;3.27;;;;;;;8.83;36.80;100381.89;1754899;80;21489;-67
2022/03/13 11:16:35;;;;;;;3.60;3.08;;;;;;;8.69;36.93;100381.78;1755960;80;20896;-66
2022/03/13 11:19:05;;;;;;;3.02;2.75;;;;;;;8.57;37.15;100382.41;1769810;80;21028;-68
2022/03/13 11:21:34;;;;;;;5.28;3.05;;;;;;;8.50;37.35;100378.59;1766004;80;21417;-66
2022/03/13 11:24:01;;;;;;;4.08;3.17;;;;;;;8.42;37.51;100373.64;1745827;80;22654;-66
2022/03/13 11:26:30;;;;;;;4.87;3.37;;;;;;;8.39;37.63;100376.08;1741311;80;20944;-64
2022/03/13 11:29:00;;;;;;;6.53;4.17;;;;;;;8.36;37.79;100373.69;1744121;82;21562;-66
2022/03/13 11:31:36;;;;;;;5.58;4.10;;;;;;;8.32;37.92;100370.94;1748563;80;21545;-67
2022/03/13 11:34:19;;;;;;;4.15;3.20;;;;;;;8.24;38.09;100378.69;1744332;80;20962;-65
2022/03/13 11:36:50;;;;;;;5.58;3.25;;;;;;;8.19;38.08;100378.25;1742489;80;21342;-66
2022/03/13 11:39:31;;;;;;;6.60;3.55;;;;;;;8.16;38.25;100377.70;1761015;80;21579;-65
2022/03/13 11:42:00;;;;;;;7.58;3.50;;;;;;;8.17;38.33;100370.92;1769772;80;21039;-63
2022/03/13 11:44:36;;;;;;;3.35;2.85;;;;;;;8.19;38.34;100372.09;1771688;80;21027;-64